Hamnavoe — VSTY7 — position and weather

sailwx.info

Track history (hours):
 
Tides and Currents Weather Stations Pressure Air Temp Water Temp Dewpoint Dewpoint Depression Visibility Wind Speed Wind Dir Waves Ship Positions

Hamnavoe

Operator: NorthLink Orkey & Shetland Ferries Ltd

Last reported at 2017-Apr-28 19:58 UTC. Time now 2017-Apr-28 20:14 UTC.
Position N 58°58' W 003°18'.

Length 112 m; draft 4.2 m.

Type: Ship. MMSI: 235449000.

Date/timePositionNaut miles runAvg speedWind from/ knotsBaromVisibWave heightAir tempDewpointWater temp
2017-Apr-28 19:58N 58°58' W 003°18'0 0.1
2017-Apr-28 19:30N 58°58' W 003°18'4 8.6
2017-Apr-28 19:00N 58°56' W 003°25'917.2
2017-Apr-28 18:30N 58°47' W 003°29'917.5
2017-Apr-28 18:00N 58°39' W 003°31'2 3.5
2017-Apr-28 17:25N 58°37' W 003°32'2 3.9
2017-Apr-28 17:00N 58°38' W 003°31'918.3
2017-Apr-28 16:30N 58°47' W 003°29'917.4
2017-Apr-28 16:00N 58°56' W 003°25'4 8.6
2017-Apr-28 15:30N 58°58' W 003°18'0 0.0
2017-Apr-28 15:00N 58°58' W 003°18'0 0.0
2017-Apr-28 14:00N 58°58' W 003°18'0 0.0
2017-Apr-28 13:30N 58°58' W 003°18'0 0.0
2017-Apr-28 13:00N 58°58' W 003°18'0 0.0
2017-Apr-28 12:30N 58°58' W 003°18'0 0.0
2017-Apr-28 12:00N 58°58' W 003°18'0 0.0
2017-Apr-28 11:30N 58°58' W 003°18'0 0.0
2017-Apr-28 11:00N 58°58' W 003°18'0 0.0
2017-Apr-28 10:29N 58°58' W 003°18'0 0.0
2017-Apr-28 09:56N 58°58' W 003°18'0 0.0
2017-Apr-28 09:30N 58°58' W 003°18'2 4.0
2017-Apr-28 09:00N 58°57' W 003°21'815.3
2017-Apr-28 08:30N 58°50' W 003°28'917.5
2017-Apr-28 08:00N 58°41' W 003°30'1 0.9
2017-Apr-28 06:45N 58°40' W 003°30'518.0
2017-Apr-28 06:30N 58°45' W 003°29'917.7
2017-Apr-28 06:00N 58°53' W 003°27'612.4
2017-Apr-28 05:30N 58°58' W 003°18'0 0.0
2017-Apr-28 04:58N 58°58' W 003°18'0 0.0
2017-Apr-28 04:28N 58°58' W 003°18'0 0.0
2017-Apr-28 03:55N 58°58' W 003°18'0 0.0
2017-Apr-28 03:28N 58°58' W 003°18'0 0.0
2017-Apr-28 02:58N 58°58' W 003°18'0 0.0
2017-Apr-28 02:28N 58°58' W 003°18'0 0.0
2017-Apr-28 01:58N 58°58' W 003°18'0 0.0
2017-Apr-28 01:28N 58°58' W 003°18'0 0.0
2017-Apr-28 00:58N 58°58' W 003°18'0 0.0
2017-Apr-28 00:28N 58°58' W 003°18'0 0.0
2017-Apr-27 23:58N 58°58' W 003°18'0 0.0
2017-Apr-27 23:28N 58°58' W 003°18'0 0.0
2017-Apr-27 22:58N 58°58' W 003°18'0 0.0
2017-Apr-27 22:28N 58°58' W 003°18'0 0.0
2017-Apr-27 21:01N 58°58' W 003°18'0 0.0
2017-Apr-27 20:58N 58°58' W 003°18'0 0.0
2017-Apr-27 20:28N 58°58' W 003°18'0 0.0
2017-Apr-27 19:58N 58°58' W 003°18'0 0.3
2017-Apr-27 19:30N 58°58' W 003°18'612.8
2017-Apr-27 19:01N 58°53' W 003°27'816.5
2017-Apr-27 18:31N 58°45' W 003°30'815.9
2017-Apr-27 18:00N 58°37' W 003°32'1 1.5
2017-Apr-27 17:30N 58°37' W 003°32'4 7.6
2017-Apr-27 17:00N 58°40' W 003°31'917.3
2017-Apr-27 16:30N 58°49' W 003°29'816.1
2017-Apr-27 16:00N 58°56' W 003°23'3 5.2
2017-Apr-27 15:27N 58°58' W 003°18'0 0.0
2017-Apr-27 15:00N 58°58' W 003°18'0 0.0
2017-Apr-27 13:57N 58°58' W 003°18'0 0.0
2017-Apr-27 13:30N 58°58' W 003°18'0 0.0
2017-Apr-27 12:57N 58°58' W 003°18'0 0.0
2017-Apr-27 12:21N 58°58' W 003°18'0 0.0
2017-Apr-27 11:57N 58°58' W 003°18'0 0.0
2017-Apr-27 11:21N 58°58' W 003°18'0 0.0
2017-Apr-27 10:57N 58°58' W 003°18'0 0.0
2017-Apr-27 09:57N 58°58' W 003°18'0 0.2
2017-Apr-27 09:30N 58°58' W 003°18'611.5
2017-Apr-27 09:01N 58°53' W 003°12'713.6
2017-Apr-27 08:30N 58°46' W 003°10'1020.1
2017-Apr-27 08:00N 58°40' W 003°26'510.0
2017-Apr-27 07:31N 58°37' W 003°32'0 0.3
2017-Apr-27 07:00N 58°37' W 003°32'816.7
2017-Apr-27 06:30N 58°45' W 003°30'917.8
2017-Apr-27 06:00N 58°54' W 003°27'612.2
2017-Apr-27 05:30N 58°58' W 003°18'0 0.5
2017-Apr-27 04:59N 58°58' W 003°18'0 0.0
2017-Apr-27 04:29N 58°58' W 003°18'0 0.0
2017-Apr-27 03:59N 58°58' W 003°18'0 0.0
2017-Apr-27 03:29N 58°58' W 003°18'0 0.0
2017-Apr-27 02:59N 58°58' W 003°18'0 0.0
2017-Apr-27 02:29N 58°58' W 003°18'0 0.0
2017-Apr-27 01:59N 58°58' W 003°18'0 0.0
2017-Apr-27 01:29N 58°58' W 003°18'0 0.0
2017-Apr-27 00:59N 58°58' W 003°18'0 0.0
2017-Apr-27 00:29N 58°58' W 003°18'0 0.0
2017-Apr-26 23:59N 58°58' W 003°18'0 0.0
2017-Apr-26 23:29N 58°58' W 003°18'0 0.0
2017-Apr-26 22:59N 58°58' W 003°18'0 0.0
2017-Apr-26 22:29N 58°58' W 003°18'0 0.0
2017-Apr-26 21:59N 58°58' W 003°18'0 0.0
2017-Apr-26 21:29N 58°58' W 003°18'0 0.0
2017-Apr-26 20:59N 58°58' W 003°18'0 0.0
2017-Apr-26 20:29N 58°58' W 003°18'0 0.0
2017-Apr-26 19:59N 58°58' W 003°18'0 0.0
2017-Apr-26 19:30N 58°58' W 003°18'612.1
2017-Apr-26 19:00N 58°54' W 003°27'816.6
2017-Apr-26 18:30N 58°46' W 003°31'916.9
2017-Apr-26 18:00N 58°37' W 003°32'1 1.7
2017-Apr-26 17:30N 58°37' W 003°32'3 6.2
2017-Apr-26 17:00N 58°40' W 003°31'917.9
2017-Apr-26 16:30N 58°49' W 003°29'917.3
2017-Apr-26 16:00N 58°57' W 003°22'3 5.0
2017-Apr-26 15:29N 58°58' W 003°18'0 0.0
2017-Apr-26 14:59N 58°58' W 003°18'0 0.0
2017-Apr-26 14:29N 58°58' W 003°18'0 0.0
2017-Apr-26 13:29N 58°58' W 003°18'0 0.0
2017-Apr-26 12:59N 58°58' W 003°18'0 0.0
2017-Apr-26 12:29N 58°58' W 003°18'0 0.0
2017-Apr-26 11:59N 58°58' W 003°18'0 0.0
2017-Apr-26 11:29N 58°58' W 003°18'0 0.0
2017-Apr-26 10:59N 58°58' W 003°18'0 0.0
2017-Apr-26 10:11N 58°58' W 003°18'0 0.0
2017-Apr-26 09:59N 58°58' W 003°18'0 0.0
2017-Apr-26 09:29N 58°58' W 003°18'1 2.2
2017-Apr-26 09:00N 58°57' W 003°18'815.0
2017-Apr-26 08:30N 58°51' W 003°28'816.4
2017-Apr-26 08:00N 58°43' W 003°30'7 9.4
2017-Apr-26 07:17N 58°37' W 003°32'2 3.3
2017-Apr-26 06:47N 58°38' W 003°31'517.3
2017-Apr-26 06:30N 58°43' W 003°29'918.9
2017-Apr-26 06:00N 58°52' W 003°27'714.1
2017-Apr-26 05:30N 58°57' W 003°17'1 1.4
2017-Apr-26 04:58N 58°58' W 003°18'0 0.0
2017-Apr-26 04:25N 58°58' W 003°18'0 0.0
2017-Apr-26 03:55N 58°58' W 003°18'0 0.0
2017-Apr-26 03:28N 58°58' W 003°18'0 0.0
2017-Apr-26 02:58N 58°58' W 003°18'0 0.0
2017-Apr-26 02:28N 58°58' W 003°18'0 0.0
2017-Apr-26 01:55N 58°58' W 003°18'0 0.0
2017-Apr-26 01:25N 58°58' W 003°18'0 0.0
2017-Apr-26 00:55N 58°58' W 003°18'0 0.0
2017-Apr-26 00:19N 58°58' W 003°18'0 0.0
2017-Apr-25 21:40N 58°58' W 003°18'0 0.0
2017-Apr-25 21:22N 58°58' W 003°18'0 0.0
2017-Apr-25 20:58N 58°58' W 003°18'0 0.0
2017-Apr-25 20:28N 58°58' W 003°18'0 0.0
2017-Apr-25 19:58N 58°58' W 003°18'0 0.0
2017-Apr-25 19:28N 58°58' W 003°18'0 0.0
2017-Apr-25 18:58N 58°58' W 003°18'0 0.0
2017-Apr-25 18:28N 58°58' W 003°18'0 0.0
2017-Apr-25 17:55N 58°58' W 003°18'0 0.0
2017-Apr-25 17:16N 58°58' W 003°18'0 0.0
2017-Apr-25 16:52N 58°58' W 003°18'0 0.0
2017-Apr-25 16:22N 58°58' W 003°18'0 0.0
2017-Apr-25 15:58N 58°58' W 003°18'0 0.0
2017-Apr-25 15:28N 58°58' W 003°18'0 0.0
2017-Apr-25 14:52N 58°58' W 003°18'8 9.1
2017-Apr-25 14:00N 58°51' W 003°11'4 8.6
2017-Apr-25 13:30N 58°46' W 003°12'612.4
2017-Apr-25 13:00N 58°44' W 003°23'713.2
2017-Apr-25 12:30N 58°39' W 003°30'2 4.6
2017-Apr-25 12:00N 58°37' W 003°32'1 1.3
2017-Apr-25 11:28N 58°37' W 003°32'817.0
2017-Apr-25 11:00N 58°45' W 003°31'817.1
2017-Apr-25 10:30N 58°53' W 003°28'713.2
2017-Apr-25 10:00N 58°57' W 003°18'1 0.9
2017-Apr-25 09:28N 58°58' W 003°18'0 0.0
2017-Apr-25 08:58N 58°58' W 003°18'0 0.0
2017-Apr-25 08:28N 58°58' W 003°18'0 0.0
2017-Apr-25 07:58N 58°58' W 003°18'0 0.0
2017-Apr-25 07:28N 58°58' W 003°18'0 0.0
2017-Apr-25 06:58N 58°58' W 003°18'0 0.0
2017-Apr-25 06:28N 58°58' W 003°18'0 0.0
2017-Apr-25 05:58N 58°58' W 003°18'0 0.0
2017-Apr-25 05:28N 58°58' W 003°18'0 0.0
2017-Apr-25 04:58N 58°58' W 003°18'0 0.0
2017-Apr-25 04:28N 58°58' W 003°18'0 0.0
2017-Apr-25 03:58N 58°58' W 003°18'0 0.0
2017-Apr-25 03:28N 58°58' W 003°18'0 0.0
2017-Apr-25 02:58N 58°58' W 003°18'0 0.0
2017-Apr-25 02:28N 58°58' W 003°18'0 0.0
2017-Apr-25 01:58N 58°58' W 003°18'0 0.0
2017-Apr-25 01:28N 58°58' W 003°18'0 0.0
2017-Apr-25 00:58N 58°58' W 003°18'0 0.0
2017-Apr-25 00:28N 58°58' W 003°18'0 0.0
2017-Apr-24 23:58N 58°58' W 003°18'0 0.0
2017-Apr-24 23:28N 58°58' W 003°18'0 0.0
2017-Apr-24 22:58N 58°58' W 003°18'0 0.0
2017-Apr-24 22:28N 58°58' W 003°18'0 0.0
2017-Apr-24 21:58N 58°58' W 003°18'0 0.0
2017-Apr-24 21:28N 58°58' W 003°18'0 0.0
2017-Apr-24 20:58N 58°58' W 003°18'0 0.0
2017-Apr-24 20:28N 58°58' W 003°18'0 0.0
2017-Apr-24 19:58N 58°58' W 003°18'0 0.2
2017-Apr-24 19:30N 58°58' W 003°18'713.1
2017-Apr-24 19:00N 58°53' W 003°28'815.1
2017-Apr-24 18:30N 58°46' W 003°31'915.9
2017-Apr-24 17:56N 58°37' W 003°32'1 1.2
2017-Apr-24 17:24N 58°37' W 003°32'3 7.6
2017-Apr-24 17:00N 58°40' W 003°31'917.4
2017-Apr-24 16:30N 58°48' W 003°29'917.3
2017-Apr-24 16:00N 58°56' W 003°24'3 6.4
2017-Apr-24 15:28N 58°58' W 003°18'0 0.0
2017-Apr-24 14:58N 58°58' W 003°18'0 0.0
2017-Apr-24 14:28N 58°58' W 003°18'0 0.0
2017-Apr-24 13:28N 58°58' W 003°18'0 0.0
2017-Apr-24 12:58N 58°58' W 003°18'0 0.0
2017-Apr-24 12:30N 58°58' W 003°18'0 0.0
2017-Apr-24 12:00N 58°58' W 003°18'0 0.0
2017-Apr-24 11:30N 58°58' W 003°18'0 0.0
2017-Apr-24 11:00N 58°58' W 003°18'0 0.0
2017-Apr-24 10:27N 58°58' W 003°18'0 0.0
2017-Apr-24 10:00N 58°58' W 003°18'0 0.0
2017-Apr-24 09:30N 58°58' W 003°18'1 2.1
2017-Apr-24 09:00N 58°57' W 003°18'714.3
2017-Apr-24 08:30N 58°52' W 003°28'917.2
2017-Apr-24 08:00N 58°43' W 003°31'713.4
2017-Apr-24 07:30N 58°37' W 003°32'0 0.1
2017-Apr-24 07:00N 58°37' W 003°32'714.8
2017-Apr-24 06:30N 58°44' W 003°30'918.0
2017-Apr-24 06:00N 58°53' W 003°28'713.9
2017-Apr-24 05:30N 58°57' W 003°18'0 0.9
2017-Apr-24 05:00N 58°58' W 003°18'0 0.0
2017-Apr-24 04:30N 58°58' W 003°18'0 0.0
2017-Apr-24 04:00N 58°58' W 003°18'0 0.0
2017-Apr-24 03:30N 58°58' W 003°18'0 0.0
2017-Apr-24 03:00N 58°58' W 003°18'0 0.0
2017-Apr-24 02:30N 58°58' W 003°18'0 0.0
2017-Apr-24 02:00N 58°58' W 003°18'0 0.0
2017-Apr-24 01:30N 58°58' W 003°18'0 0.0
2017-Apr-24 01:00N 58°58' W 003°18'0 0.0
2017-Apr-24 00:30N 58°58' W 003°18'0 0.0
2017-Apr-24 00:00N 58°58' W 003°18'0 0.0
2017-Apr-23 23:27N 58°58' W 003°18'0 0.0
2017-Apr-23 22:54N 58°58' W 003°18'0 0.0
2017-Apr-23 22:30N 58°58' W 003°18'0 0.0
2017-Apr-23 22:00N 58°58' W 003°18'0 0.0
2017-Apr-23 21:30N 58°58' W 003°18'0 0.0
2017-Apr-23 20:48N 58°58' W 003°18'0 0.0
2017-Apr-23 20:12N 58°58' W 003°18'0 0.0
2017-Apr-23 20:00N 58°58' W 003°18'0 0.6
2017-Apr-23 19:30N 58°57' W 003°18'815.8
2017-Apr-23 19:00N 58°50' W 003°11'713.7
2017-Apr-23 18:29N 58°44' W 003°18'919.6
2017-Apr-23 18:00N 58°38' W 003°31'1 2.3
2017-Apr-23 17:29N 58°37' W 003°32'4 8.8
2017-Apr-23 17:00N 58°41' W 003°32'917.2
2017-Apr-23 16:30N 58°49' W 003°30'815.0
2017-Apr-23 16:00N 58°56' W 003°24'4 7.2
2017-Apr-23 15:30N 58°58' W 003°18'0 0.0
2017-Apr-23 14:59N 58°58' W 003°18'0 0.0
2017-Apr-23 14:26N 58°58' W 003°18'0 0.0
2017-Apr-23 13:26N 58°58' W 003°18'0 0.0
2017-Apr-23 12:56N 58°58' W 003°18'0 0.0
2017-Apr-23 12:30N 58°58' W 003°18'4 8.7
2017-Apr-23 12:00N 58°56' W 003°25'917.6
2017-Apr-23 11:30N 58°48' W 003°31'917.4
2017-Apr-23 11:00N 58°39' W 003°32'2 4.4
2017-Apr-23 10:30N 58°37' W 003°32'0 0.0
2017-Apr-23 10:00N 58°37' W 003°32'0 0.0
2017-Apr-23 09:30N 58°37' W 003°32'714.1
2017-Apr-23 09:00N 58°44' W 003°30'918.1
2017-Apr-23 08:30N 58°53' W 003°28'714.5
2017-Apr-23 08:00N 58°58' W 003°18'0 0.6
2017-Apr-23 07:31N 58°58' W 003°18'0 0.0
2017-Apr-23 06:55N 58°58' W 003°18'0 0.0
2017-Apr-23 06:31N 58°58' W 003°18'0 0.0
2017-Apr-23 05:55N 58°58' W 003°18'0 0.0
2017-Apr-23 05:25N 58°58' W 003°18'0 0.0
2017-Apr-23 04:58N 58°58' W 003°18'0 0.0
2017-Apr-23 04:25N 58°58' W 003°18'0 0.0
2017-Apr-23 03:55N 58°58' W 003°18'0 0.0
2017-Apr-23 03:25N 58°58' W 003°18'0 0.0
2017-Apr-23 02:58N 58°58' W 003°18'0 0.0
2017-Apr-23 02:31N 58°58' W 003°18'0 0.0
2017-Apr-23 01:55N 58°58' W 003°18'0 0.0
2017-Apr-23 01:28N 58°58' W 003°18'0 0.0
2017-Apr-23 01:01N 58°58' W 003°18'0 0.0
2017-Apr-23 00:28N 58°58' W 003°18'0 0.0
2017-Apr-23 00:01N 58°58' W 003°18'0 0.0
2017-Apr-22 23:28N 58°58' W 003°18'0 0.0
2017-Apr-22 22:58N 58°58' W 003°18'0 0.0
2017-Apr-22 22:25N 58°58' W 003°18'0 0.0
2017-Apr-22 21:58N 58°58' W 003°18'0 0.0
2017-Apr-22 21:28N 58°58' W 003°18'0 0.0
2017-Apr-22 20:55N 58°58' W 003°18'0 0.0
2017-Apr-22 20:31N 58°58' W 003°18'0 0.0
2017-Apr-22 19:55N 58°58' W 003°18'0 0.0
2017-Apr-22 19:30N 58°58' W 003°18'4 8.0
2017-Apr-22 19:00N 58°56' W 003°24'816.1
2017-Apr-22 18:30N 58°48' W 003°30'816.2
2017-Apr-22 18:00N 58°40' W 003°31'4 7.5
2017-Apr-22 17:30N 58°37' W 003°32'2 4.8
2017-Apr-22 17:00N 58°39' W 003°32'918.0
2017-Apr-22 16:30N 58°48' W 003°29'917.9
2017-Apr-22 16:00N 58°56' W 003°24'3 6.6
2017-Apr-22 15:29N 58°58' W 003°18'0 0.0
2017-Apr-22 14:59N 58°58' W 003°18'0 0.0
2017-Apr-22 14:29N 58°58' W 003°18'0 0.0
2017-Apr-22 13:29N 58°58' W 003°18'0 0.0
2017-Apr-22 12:59N 58°58' W 003°18'0 0.0
2017-Apr-22 12:30N 58°58' W 003°18'510.5
2017-Apr-22 12:00N 58°55' W 003°26'816.0
2017-Apr-22 11:30N 58°47' W 003°29'815.7
2017-Apr-22 11:00N 58°39' W 003°31'3 3.4
2017-Apr-22 10:16N 58°37' W 003°32'0 0.0
2017-Apr-22 09:54N 58°37' W 003°32'0 0.1
2017-Apr-22 09:30N 58°37' W 003°32'714.3
2017-Apr-22 09:00N 58°44' W 003°30'917.8
2017-Apr-22 08:31N 58°52' W 003°28'714.5
2017-Apr-22 08:00N 58°57' W 003°18'0 0.7
2017-Apr-22 07:26N 58°58' W 003°18'0 0.0
2017-Apr-22 06:59N 58°58' W 003°18'0 0.0
2017-Apr-22 06:26N 58°58' W 003°18'0 0.0
2017-Apr-22 05:50N 58°58' W 003°18'0 0.0
2017-Apr-22 05:29N 58°58' W 003°18'0 0.0
2017-Apr-22 04:56N 58°58' W 003°18'0 0.0
2017-Apr-22 04:29N 58°58' W 003°18'0 0.0
2017-Apr-22 03:59N 58°58' W 003°18'0 0.0
2017-Apr-22 03:29N 58°58' W 003°18'0 0.0
2017-Apr-22 02:56N 58°58' W 003°18'0 0.0
2017-Apr-22 02:29N 58°58' W 003°18'0 0.0
2017-Apr-22 01:59N 58°58' W 003°18'0 0.0
2017-Apr-22 01:29N 58°58' W 003°18'0 0.0
2017-Apr-22 00:59N 58°58' W 003°18'0 0.0
2017-Apr-22 00:29N 58°58' W 003°18'0 0.0
2017-Apr-21 23:56N 58°58' W 003°18'0 0.0
2017-Apr-21 23:29N 58°58' W 003°18'0 0.0
2017-Apr-21 22:56N 58°58' W 003°18'0 0.0
2017-Apr-21 22:29N 58°58' W 003°18'0 0.0
2017-Apr-21 21:59N 58°58' W 003°18'0 0.0
2017-Apr-21 21:29N 58°58' W 003°18'0 0.0
2017-Apr-21 20:56N 58°58' W 003°18'0 0.0
2017-Apr-21 20:29N 58°58' W 003°18'0 0.0
2017-Apr-21 20:00N 58°58' W 003°18'4 8.5
2017-Apr-21 19:30N 58°54' W 003°13'815.3
2017-Apr-21 19:00N 58°47' W 003°08'919.1
2017-Apr-21 18:30N 58°42' W 003°24'713.6
2017-Apr-21 17:59N 58°37' W 003°32'0 0.0
2017-Apr-21 17:28N 58°37' W 003°32'4 8.5
2017-Apr-21 17:01N 58°41' W 003°32'918.0
2017-Apr-21 16:30N 58°50' W 003°30'815.8
2017-Apr-21 16:00N 58°57' W 003°23'3 5.8
2017-Apr-21 15:30N 58°58' W 003°18'0 0.0
2017-Apr-21 15:00N 58°58' W 003°18'0 0.0
2017-Apr-21 14:30N 58°58' W 003°18'0 0.0
2017-Apr-21 13:30N 58°58' W 003°18'0 0.0
2017-Apr-21 13:00N 58°58' W 003°18'0 0.0
2017-Apr-21 12:30N 58°58' W 003°18'0 0.0
2017-Apr-21 12:00N 58°58' W 003°18'0 0.0
2017-Apr-21 11:30N 58°58' W 003°18'0 0.0
2017-Apr-21 11:00N 58°58' W 003°18'0 0.0
2017-Apr-21 10:30N 58°58' W 003°18'0 0.0
2017-Apr-21 10:00N 58°58' W 003°18'4 7.6
2017-Apr-21 09:30N 58°55' W 003°13'815.7
2017-Apr-21 09:00N 58°49' W 003°03'815.8
2017-Apr-21 08:30N 58°41' W 003°10'816.8
2017-Apr-21 08:00N 58°40' W 003°26'5 9.7
2017-Apr-21 07:28N 58°37' W 003°32'1 1.8
2017-Apr-21 07:00N 58°37' W 003°32'917.5
2017-Apr-21 06:31N 58°46' W 003°31'917.9
2017-Apr-21 06:00N 58°55' W 003°26'510.8
2017-Apr-21 05:30N 58°58' W 003°18'0 0.0
2017-Apr-21 04:57N 58°58' W 003°18'0 0.0
2017-Apr-21 04:27N 58°58' W 003°18'0 0.0
2017-Apr-21 03:57N 58°58' W 003°18'0 0.0
2017-Apr-21 03:27N 58°58' W 003°18'0 0.0
2017-Apr-21 03:00N 58°58' W 003°18'0 0.0
2017-Apr-21 02:21N 58°58' W 003°18'0 0.0
2017-Apr-21 01:57N 58°58' W 003°18'0 0.0
2017-Apr-21 01:27N 58°58' W 003°18'0 0.0
2017-Apr-21 00:57N 58°58' W 003°18'0 0.0
2017-Apr-21 00:27N 58°58' W 003°18'0 0.0
2017-Apr-20 23:57N 58°58' W 003°18'0 0.0
2017-Apr-20 23:27N 58°58' W 003°18'0 0.0
2017-Apr-20 22:57N 58°58' W 003°18'0 0.0
2017-Apr-20 22:27N 58°58' W 003°18'0 0.0
2017-Apr-20 21:57N 58°58' W 003°18'0 0.0
2017-Apr-20 21:27N 58°58' W 003°18'0 0.0
2017-Apr-20 20:57N 58°58' W 003°18'0 0.0
2017-Apr-20 20:27N 58°58' W 003°18'0 0.0
2017-Apr-20 20:00N 58°58' W 003°18'0 0.0
2017-Apr-20 19:30N 58°58' W 003°18'5 9.8
2017-Apr-20 19:01N 58°55' W 003°26'917.1
2017-Apr-20 18:30N 58°47' W 003°30'817.1
2017-Apr-20 18:00N 58°39' W 003°31'2 3.4
2017-Apr-20 17:26N 58°37' W 003°32'3 7.8
2017-Apr-20 17:00N 58°40' W 003°32'917.6
2017-Apr-20 16:30N 58°49' W 003°30'816.7
2017-Apr-20 16:00N 58°56' W 003°24'3 5.7
2017-Apr-20 15:25N 58°58' W 003°18'0 0.0
2017-Apr-20 14:49N 58°58' W 003°18'0 0.0
2017-Apr-20 13:55N 58°58' W 003°18'0 0.0
2017-Apr-20 13:25N 58°58' W 003°18'0 0.0
2017-Apr-20 12:58N 58°58' W 003°18'0 0.0
2017-Apr-20 12:25N 58°58' W 003°18'0 0.0
2017-Apr-20 12:00N 58°58' W 003°18'0 0.0
2017-Apr-20 11:30N 58°58' W 003°18'0 0.0
2017-Apr-20 11:00N 58°58' W 003°18'0 0.0
2017-Apr-20 10:27N 58°58' W 003°18'0 0.0
2017-Apr-20 09:59N 58°58' W 003°18'0 0.0
2017-Apr-20 09:29N 58°58' W 003°18'1 2.1
2017-Apr-20 09:00N 58°57' W 003°17'815.7
2017-Apr-20 08:30N 58°52' W 003°29'917.7
2017-Apr-20 08:00N 58°43' W 003°31'6 6.5
2017-Apr-20 07:02N 58°37' W 003°32'0 2.2
2017-Apr-20 07:00N 58°37' W 003°32'815.3
2017-Apr-20 06:30N 58°44' W 003°31'917.5
2017-Apr-20 06:01N 58°53' W 003°29'714.5
2017-Apr-20 05:30N 58°57' W 003°18'0 0.9
2017-Apr-20 05:00N 58°58' W 003°18'0 0.0
2017-Apr-20 04:30N 58°58' W 003°18'0 0.0
2017-Apr-20 04:00N 58°58' W 003°18'0 0.0
2017-Apr-20 03:30N 58°58' W 003°18'0 0.0
2017-Apr-20 03:00N 58°58' W 003°18'0 0.0
2017-Apr-20 02:30N 58°58' W 003°18'0 0.0
2017-Apr-20 02:00N 58°58' W 003°18'0 0.0
2017-Apr-20 01:30N 58°58' W 003°18'0 0.0
2017-Apr-20 01:00N 58°58' W 003°18'0 0.0
2017-Apr-20 00:30N 58°58' W 003°18'0 0.0
2017-Apr-20 00:00N 58°58' W 003°18'0 0.0
2017-Apr-19 23:30N 58°58' W 003°18'0 0.0
2017-Apr-19 23:00N 58°58' W 003°18'0 0.0
2017-Apr-19 22:30N 58°58' W 003°18'0 0.0
2017-Apr-19 22:00N 58°58' W 003°18'0 0.0
2017-Apr-19 21:06N 58°58' W 003°18'0 0.0
2017-Apr-19 21:00N 58°58' W 003°18'0 0.0
2017-Apr-19 20:30N 58°58' W 003°18'0 0.0
2017-Apr-19 20:00N 58°58' W 003°18'0 0.0
2017-Apr-19 19:30N 58°58' W 003°18'3 6.4
2017-Apr-19 19:00N 58°56' W 003°23'917.3
2017-Apr-19 18:30N 58°48' W 003°28'917.9
2017-Apr-19 18:00N 58°39' W 003°30'3 5.3
2017-Apr-19 17:30N 58°37' W 003°32'2 3.9
2017-Apr-19 16:59N 58°39' W 003°31'918.4
2017-Apr-19 16:30N 58°47' W 003°29'918.2
2017-Apr-19 16:00N 58°56' W 003°24'4 7.7
2017-Apr-19 15:30N 58°58' W 003°18'0 0.0
2017-Apr-19 15:00N 58°58' W 003°18'0 0.0
2017-Apr-19 14:30N 58°58' W 003°18'0 0.0
2017-Apr-19 13:30N 58°58' W 003°18'0 0.0
2017-Apr-19 13:00N 58°58' W 003°18'0 0.0
2017-Apr-19 12:30N 58°58' W 003°18'0 0.0
2017-Apr-19 12:00N 58°58' W 003°18'0 0.0
2017-Apr-19 11:30N 58°58' W 003°18'0 0.0
2017-Apr-19 11:00N 58°58' W 003°18'0 0.0
2017-Apr-19 10:30N 58°58' W 003°18'0 0.0
2017-Apr-19 10:00N 58°58' W 003°18'0 0.0
2017-Apr-19 09:30N 58°58' W 003°18'1 1.9
2017-Apr-19 09:00N 58°57' W 003°17'815.6
2017-Apr-19 08:31N 58°52' W 003°28'918.4
2017-Apr-19 08:00N 58°43' W 003°30'611.1
2017-Apr-19 07:29N 58°37' W 003°32'0 0.0
2017-Apr-19 06:56N 58°37' W 003°32'613.8
2017-Apr-19 06:30N 58°42' W 003°30'918.2
2017-Apr-19 06:00N 58°52' W 003°28'815.8
2017-Apr-19 05:30N 58°57' W 003°17'1 1.1
2017-Apr-19 04:48N 58°58' W 003°18'0 0.0
2017-Apr-19 04:30N 58°58' W 003°18'0 0.0
2017-Apr-19 04:00N 58°58' W 003°18'0 0.0
2017-Apr-19 03:30N 58°58' W 003°18'0 0.0
2017-Apr-19 03:00N 58°58' W 003°18'0 0.0
2017-Apr-19 02:30N 58°58' W 003°18'0 0.0
2017-Apr-19 02:00N 58°58' W 003°18'0 0.0
2017-Apr-19 01:30N 58°58' W 003°18'0 0.0
2017-Apr-19 01:00N 58°58' W 003°18'0 0.0
2017-Apr-19 00:30N 58°58' W 003°18'0 0.0
2017-Apr-19 00:00N 58°58' W 003°18'0 0.0
2017-Apr-18 23:30N 58°58' W 003°18'0 0.0
2017-Apr-18 23:00N 58°58' W 003°18'0 0.0
2017-Apr-18 22:18N 58°58' W 003°18'0 0.0
2017-Apr-18 22:00N 58°58' W 003°18'0 0.0
2017-Apr-18 21:30N 58°58' W 003°18'0 0.0
2017-Apr-18 21:00N 58°58' W 003°18'0 0.0
2017-Apr-18 20:30N 58°58' W 003°18'0 0.0
2017-Apr-18 20:00N 58°58' W 003°18'  
Track history (hours):
 
Tides and Currents Weather Stations Pressure Air Temp Water Temp Dewpoint Dewpoint Depression Visibility Wind Speed Wind Dir Waves Ship Positions

Hamnavoe

Operator: NorthLink Orkey & Shetland Ferries Ltd

Last reported at 2017-Apr-28 19:58 UTC. Time now 2017-Apr-28 20:14 UTC.
Position N 58°58' W 003°18'.

Length 112 m; draft 4.2 m.

Type: Ship. MMSI: 235449000.

Date/timePositionNaut miles runAvg speedWind from/ knotsBaromVisibWave heightAir tempDewpointWater temp
2017-Apr-28 19:58N 58°58' W 003°18'0 0.1
2017-Apr-28 19:30N 58°58' W 003°18'4 8.6
2017-Apr-28 19:00N 58°56' W 003°25'917.2
2017-Apr-28 18:30N 58°47' W 003°29'917.5
2017-Apr-28 18:00N 58°39' W 003°31'2 3.5
2017-Apr-28 17:25N 58°37' W 003°32'2 3.9
2017-Apr-28 17:00N 58°38' W 003°31'918.3
2017-Apr-28 16:30N 58°47' W 003°29'917.4
2017-Apr-28 16:00N 58°56' W 003°25'4 8.6
2017-Apr-28 15:30N 58°58' W 003°18'0 0.0
2017-Apr-28 15:00N 58°58' W 003°18'0 0.0
2017-Apr-28 14:00N 58°58' W 003°18'0 0.0
2017-Apr-28 13:30N 58°58' W 003°18'0 0.0
2017-Apr-28 13:00N 58°58' W 003°18'0 0.0
2017-Apr-28 12:30N 58°58' W 003°18'0 0.0
2017-Apr-28 12:00N 58°58' W 003°18'0 0.0
2017-Apr-28 11:30N 58°58' W 003°18'0 0.0
2017-Apr-28 11:00N 58°58' W 003°18'0 0.0
2017-Apr-28 10:29N 58°58' W 003°18'0 0.0
2017-Apr-28 09:56N 58°58' W 003°18'0 0.0
2017-Apr-28 09:30N 58°58' W 003°18'2 4.0
2017-Apr-28 09:00N 58°57' W 003°21'815.3
2017-Apr-28 08:30N 58°50' W 003°28'917.5
2017-Apr-28 08:00N 58°41' W 003°30'1 0.9
2017-Apr-28 06:45N 58°40' W 003°30'518.0
2017-Apr-28 06:30N 58°45' W 003°29'917.7
2017-Apr-28 06:00N 58°53' W 003°27'612.4
2017-Apr-28 05:30N 58°58' W 003°18'0 0.0
2017-Apr-28 04:58N 58°58' W 003°18'0 0.0
2017-Apr-28 04:28N 58°58' W 003°18'0 0.0
2017-Apr-28 03:55N 58°58' W 003°18'0 0.0
2017-Apr-28 03:28N 58°58' W 003°18'0 0.0
2017-Apr-28 02:58N 58°58' W 003°18'0 0.0
2017-Apr-28 02:28N 58°58' W 003°18'0 0.0
2017-Apr-28 01:58N 58°58' W 003°18'0 0.0
2017-Apr-28 01:28N 58°58' W 003°18'0 0.0
2017-Apr-28 00:58N 58°58' W 003°18'0 0.0
2017-Apr-28 00:28N 58°58' W 003°18'0 0.0
2017-Apr-27 23:58N 58°58' W 003°18'0 0.0
2017-Apr-27 23:28N 58°58' W 003°18'0 0.0
2017-Apr-27 22:58N 58°58' W 003°18'0 0.0
2017-Apr-27 22:28N 58°58' W 003°18'0 0.0
2017-Apr-27 21:01N 58°58' W 003°18'0 0.0
2017-Apr-27 20:58N 58°58' W 003°18'0 0.0
2017-Apr-27 20:28N 58°58' W 003°18'0 0.0
2017-Apr-27 19:58N 58°58' W 003°18'0 0.3
2017-Apr-27 19:30N 58°58' W 003°18'612.8
2017-Apr-27 19:01N 58°53' W 003°27'816.5
2017-Apr-27 18:31N 58°45' W 003°30'815.9
2017-Apr-27 18:00N 58°37' W 003°32'1 1.5
2017-Apr-27 17:30N 58°37' W 003°32'4 7.6
2017-Apr-27 17:00N 58°40' W 003°31'917.3
2017-Apr-27 16:30N 58°49' W 003°29'816.1
2017-Apr-27 16:00N 58°56' W 003°23'3 5.2
2017-Apr-27 15:27N 58°58' W 003°18'0 0.0
2017-Apr-27 15:00N 58°58' W 003°18'0 0.0
2017-Apr-27 13:57N 58°58' W 003°18'0 0.0
2017-Apr-27 13:30N 58°58' W 003°18'0 0.0
2017-Apr-27 12:57N 58°58' W 003°18'0 0.0
2017-Apr-27 12:21N 58°58' W 003°18'0 0.0
2017-Apr-27 11:57N 58°58' W 003°18'0 0.0
2017-Apr-27 11:21N 58°58' W 003°18'0 0.0
2017-Apr-27 10:57N 58°58' W 003°18'0 0.0
2017-Apr-27 09:57N 58°58' W 003°18'0 0.2
2017-Apr-27 09:30N 58°58' W 003°18'611.5
2017-Apr-27 09:01N 58°53' W 003°12'713.6
2017-Apr-27 08:30N 58°46' W 003°10'1020.1
2017-Apr-27 08:00N 58°40' W 003°26'510.0
2017-Apr-27 07:31N 58°37' W 003°32'0 0.3
2017-Apr-27 07:00N 58°37' W 003°32'816.7
2017-Apr-27 06:30N 58°45' W 003°30'917.8
2017-Apr-27 06:00N 58°54' W 003°27'612.2
2017-Apr-27 05:30N 58°58' W 003°18'0 0.5
2017-Apr-27 04:59N 58°58' W 003°18'0 0.0
2017-Apr-27 04:29N 58°58' W 003°18'0 0.0
2017-Apr-27 03:59N 58°58' W 003°18'0 0.0
2017-Apr-27 03:29N 58°58' W 003°18'0 0.0
2017-Apr-27 02:59N 58°58' W 003°18'0 0.0
2017-Apr-27 02:29N 58°58' W 003°18'0 0.0
2017-Apr-27 01:59N 58°58' W 003°18'0 0.0
2017-Apr-27 01:29N 58°58' W 003°18'0 0.0
2017-Apr-27 00:59N 58°58' W 003°18'0 0.0
2017-Apr-27 00:29N 58°58' W 003°18'0 0.0
2017-Apr-26 23:59N 58°58' W 003°18'0 0.0
2017-Apr-26 23:29N 58°58' W 003°18'0 0.0
2017-Apr-26 22:59N 58°58' W 003°18'0 0.0
2017-Apr-26 22:29N 58°58' W 003°18'0 0.0
2017-Apr-26 21:59N 58°58' W 003°18'0 0.0
2017-Apr-26 21:29N 58°58' W 003°18'0 0.0
2017-Apr-26 20:59N 58°58' W 003°18'0 0.0
2017-Apr-26 20:29N 58°58' W 003°18'0 0.0
2017-Apr-26 19:59N 58°58' W 003°18'0 0.0
2017-Apr-26 19:30N 58°58' W 003°18'612.1
2017-Apr-26 19:00N 58°54' W 003°27'816.6
2017-Apr-26 18:30N 58°46' W 003°31'916.9
2017-Apr-26 18:00N 58°37' W 003°32'1 1.7
2017-Apr-26 17:30N 58°37' W 003°32'3 6.2
2017-Apr-26 17:00N 58°40' W 003°31'917.9
2017-Apr-26 16:30N 58°49' W 003°29'917.3
2017-Apr-26 16:00N 58°57' W 003°22'3 5.0
2017-Apr-26 15:29N 58°58' W 003°18'0 0.0
2017-Apr-26 14:59N 58°58' W 003°18'0 0.0
2017-Apr-26 14:29N 58°58' W 003°18'0 0.0
2017-Apr-26 13:29N 58°58' W 003°18'0 0.0
2017-Apr-26 12:59N 58°58' W 003°18'0 0.0
2017-Apr-26 12:29N 58°58' W 003°18'0 0.0
2017-Apr-26 11:59N 58°58' W 003°18'0 0.0
2017-Apr-26 11:29N 58°58' W 003°18'0 0.0
2017-Apr-26 10:59N 58°58' W 003°18'0 0.0
2017-Apr-26 10:11N 58°58' W 003°18'0 0.0
2017-Apr-26 09:59N 58°58' W 003°18'0 0.0
2017-Apr-26 09:29N 58°58' W 003°18'1 2.2
2017-Apr-26 09:00N 58°57' W 003°18'815.0
2017-Apr-26 08:30N 58°51' W 003°28'816.4
2017-Apr-26 08:00N 58°43' W 003°30'7 9.4
2017-Apr-26 07:17N 58°37' W 003°32'2 3.3
2017-Apr-26 06:47N 58°38' W 003°31'517.3
2017-Apr-26 06:30N 58°43' W 003°29'918.9
2017-Apr-26 06:00N 58°52' W 003°27'714.1
2017-Apr-26 05:30N 58°57' W 003°17'1 1.4
2017-Apr-26 04:58N 58°58' W 003°18'0 0.0
2017-Apr-26 04:25N 58°58' W 003°18'0 0.0
2017-Apr-26 03:55N 58°58' W 003°18'0 0.0
2017-Apr-26 03:28N 58°58' W 003°18'0 0.0
2017-Apr-26 02:58N 58°58' W 003°18'0 0.0
2017-Apr-26 02:28N 58°58' W 003°18'0 0.0
2017-Apr-26 01:55N 58°58' W 003°18'0 0.0
2017-Apr-26 01:25N 58°58' W 003°18'0 0.0
2017-Apr-26 00:55N 58°58' W 003°18'0 0.0
2017-Apr-26 00:19N 58°58' W 003°18'0 0.0
2017-Apr-25 21:40N 58°58' W 003°18'0 0.0
2017-Apr-25 21:22N 58°58' W 003°18'0 0.0
2017-Apr-25 20:58N 58°58' W 003°18'0 0.0
2017-Apr-25 20:28N 58°58' W 003°18'0 0.0
2017-Apr-25 19:58N 58°58' W 003°18'0 0.0
2017-Apr-25 19:28N 58°58' W 003°18'0 0.0
2017-Apr-25 18:58N 58°58' W 003°18'0 0.0
2017-Apr-25 18:28N 58°58' W 003°18'0 0.0
2017-Apr-25 17:55N 58°58' W 003°18'0 0.0
2017-Apr-25 17:16N 58°58' W 003°18'0 0.0
2017-Apr-25 16:52N 58°58' W 003°18'0 0.0
2017-Apr-25 16:22N 58°58' W 003°18'0 0.0
2017-Apr-25 15:58N 58°58' W 003°18'0 0.0
2017-Apr-25 15:28N 58°58' W 003°18'0 0.0
2017-Apr-25 14:52N 58°58' W 003°18'8 9.1
2017-Apr-25 14:00N 58°51' W 003°11'4 8.6
2017-Apr-25 13:30N 58°46' W 003°12'612.4
2017-Apr-25 13:00N 58°44' W 003°23'713.2
2017-Apr-25 12:30N 58°39' W 003°30'2 4.6
2017-Apr-25 12:00N 58°37' W 003°32'1 1.3
2017-Apr-25 11:28N 58°37' W 003°32'817.0
2017-Apr-25 11:00N 58°45' W 003°31'817.1
2017-Apr-25 10:30N 58°53' W 003°28'713.2
2017-Apr-25 10:00N 58°57' W 003°18'1 0.9
2017-Apr-25 09:28N 58°58' W 003°18'0 0.0
2017-Apr-25 08:58N 58°58' W 003°18'0 0.0
2017-Apr-25 08:28N 58°58' W 003°18'0 0.0
2017-Apr-25 07:58N 58°58' W 003°18'0 0.0
2017-Apr-25 07:28N 58°58' W 003°18'0 0.0
2017-Apr-25 06:58N 58°58' W 003°18'0 0.0
2017-Apr-25 06:28N 58°58' W 003°18'0 0.0
2017-Apr-25 05:58N 58°58' W 003°18'0 0.0
2017-Apr-25 05:28N 58°58' W 003°18'0 0.0
2017-Apr-25 04:58N 58°58' W 003°18'0 0.0
2017-Apr-25 04:28N 58°58' W 003°18'0 0.0
2017-Apr-25 03:58N 58°58' W 003°18'0 0.0
2017-Apr-25 03:28N 58°58' W 003°18'0 0.0
2017-Apr-25 02:58N 58°58' W 003°18'0 0.0
2017-Apr-25 02:28N 58°58' W 003°18'0 0.0
2017-Apr-25 01:58N 58°58' W 003°18'0 0.0
2017-Apr-25 01:28N 58°58' W 003°18'0 0.0
2017-Apr-25 00:58N 58°58' W 003°18'0 0.0
2017-Apr-25 00:28N 58°58' W 003°18'0 0.0
2017-Apr-24 23:58N 58°58' W 003°18'0 0.0
2017-Apr-24 23:28N 58°58' W 003°18'0 0.0
2017-Apr-24 22:58N 58°58' W 003°18'0 0.0
2017-Apr-24 22:28N 58°58' W 003°18'0 0.0
2017-Apr-24 21:58N 58°58' W 003°18'0 0.0
2017-Apr-24 21:28N 58°58' W 003°18'0 0.0
2017-Apr-24 20:58N 58°58' W 003°18'0 0.0
2017-Apr-24 20:28N 58°58' W 003°18'0 0.0
2017-Apr-24 19:58N 58°58' W 003°18'0 0.2
2017-Apr-24 19:30N 58°58' W 003°18'713.1
2017-Apr-24 19:00N 58°53' W 003°28'815.1
2017-Apr-24 18:30N 58°46' W 003°31'915.9
2017-Apr-24 17:56N 58°37' W 003°32'1 1.2
2017-Apr-24 17:24N 58°37' W 003°32'3 7.6
2017-Apr-24 17:00N 58°40' W 003°31'917.4
2017-Apr-24 16:30N 58°48' W 003°29'917.3
2017-Apr-24 16:00N 58°56' W 003°24'3 6.4
2017-Apr-24 15:28N 58°58' W 003°18'0 0.0
2017-Apr-24 14:58N 58°58' W 003°18'0 0.0
2017-Apr-24 14:28N 58°58' W 003°18'0 0.0
2017-Apr-24 13:28N 58°58' W 003°18'0 0.0
2017-Apr-24 12:58N 58°58' W 003°18'0 0.0
2017-Apr-24 12:30N 58°58' W 003°18'0 0.0
2017-Apr-24 12:00N 58°58' W 003°18'0 0.0
2017-Apr-24 11:30N 58°58' W 003°18'0 0.0
2017-Apr-24 11:00N 58°58' W 003°18'0 0.0
2017-Apr-24 10:27N 58°58' W 003°18'0 0.0
2017-Apr-24 10:00N 58°58' W 003°18'0 0.0
2017-Apr-24 09:30N 58°58' W 003°18'1 2.1
2017-Apr-24 09:00N 58°57' W 003°18'714.3
2017-Apr-24 08:30N 58°52' W 003°28'917.2
2017-Apr-24 08:00N 58°43' W 003°31'713.4
2017-Apr-24 07:30N 58°37' W 003°32'0 0.1
2017-Apr-24 07:00N 58°37' W 003°32'714.8
2017-Apr-24 06:30N 58°44' W 003°30'918.0
2017-Apr-24 06:00N 58°53' W 003°28'713.9
2017-Apr-24 05:30N 58°57' W 003°18'0 0.9
2017-Apr-24 05:00N 58°58' W 003°18'0 0.0
2017-Apr-24 04:30N 58°58' W 003°18'0 0.0
2017-Apr-24 04:00N 58°58' W 003°18'0 0.0
2017-Apr-24 03:30N 58°58' W 003°18'0 0.0
2017-Apr-24 03:00N 58°58' W 003°18'0 0.0
2017-Apr-24 02:30N 58°58' W 003°18'0 0.0
2017-Apr-24 02:00N 58°58' W 003°18'0 0.0
2017-Apr-24 01:30N 58°58' W 003°18'0 0.0
2017-Apr-24 01:00N 58°58' W 003°18'0 0.0
2017-Apr-24 00:30N 58°58' W 003°18'0 0.0
2017-Apr-24 00:00N 58°58' W 003°18'0 0.0
2017-Apr-23 23:27N 58°58' W 003°18'0 0.0
2017-Apr-23 22:54N 58°58' W 003°18'0 0.0
2017-Apr-23 22:30N 58°58' W 003°18'0 0.0
2017-Apr-23 22:00N 58°58' W 003°18'0 0.0
2017-Apr-23 21:30N 58°58' W 003°18'0 0.0
2017-Apr-23 20:48N 58°58' W 003°18'0 0.0
2017-Apr-23 20:12N 58°58' W 003°18'0 0.0
2017-Apr-23 20:00N 58°58' W 003°18'0 0.6
2017-Apr-23 19:30N 58°57' W 003°18'815.8
2017-Apr-23 19:00N 58°50' W 003°11'713.7
2017-Apr-23 18:29N 58°44' W 003°18'919.6
2017-Apr-23 18:00N 58°38' W 003°31'1 2.3
2017-Apr-23 17:29N 58°37' W 003°32'4 8.8
2017-Apr-23 17:00N 58°41' W 003°32'917.2
2017-Apr-23 16:30N 58°49' W 003°30'815.0
2017-Apr-23 16:00N 58°56' W 003°24'4 7.2
2017-Apr-23 15:30N 58°58' W 003°18'0 0.0
2017-Apr-23 14:59N 58°58' W 003°18'0 0.0
2017-Apr-23 14:26N 58°58' W 003°18'0 0.0
2017-Apr-23 13:26N 58°58' W 003°18'0 0.0
2017-Apr-23 12:56N 58°58' W 003°18'0 0.0
2017-Apr-23 12:30N 58°58' W 003°18'4 8.7
2017-Apr-23 12:00N 58°56' W 003°25'917.6
2017-Apr-23 11:30N 58°48' W 003°31'917.4
2017-Apr-23 11:00N 58°39' W 003°32'2 4.4
2017-Apr-23 10:30N 58°37' W 003°32'0 0.0
2017-Apr-23 10:00N 58°37' W 003°32'0 0.0
2017-Apr-23 09:30N 58°37' W 003°32'714.1
2017-Apr-23 09:00N 58°44' W 003°30'918.1
2017-Apr-23 08:30N 58°53' W 003°28'714.5
2017-Apr-23 08:00N 58°58' W 003°18'0 0.6
2017-Apr-23 07:31N 58°58' W 003°18'0 0.0
2017-Apr-23 06:55N 58°58' W 003°18'0 0.0
2017-Apr-23 06:31N 58°58' W 003°18'0 0.0
2017-Apr-23 05:55N 58°58' W 003°18'0 0.0
2017-Apr-23 05:25N 58°58' W 003°18'0 0.0
2017-Apr-23 04:58N 58°58' W 003°18'0 0.0
2017-Apr-23 04:25N 58°58' W 003°18'0 0.0
2017-Apr-23 03:55N 58°58' W 003°18'0 0.0
2017-Apr-23 03:25N 58°58' W 003°18'0 0.0
2017-Apr-23 02:58N 58°58' W 003°18'0 0.0
2017-Apr-23 02:31N 58°58' W 003°18'0 0.0
2017-Apr-23 01:55N 58°58' W 003°18'0 0.0
2017-Apr-23 01:28N 58°58' W 003°18'0 0.0
2017-Apr-23 01:01N 58°58' W 003°18'0 0.0
2017-Apr-23 00:28N 58°58' W 003°18'0 0.0
2017-Apr-23 00:01N 58°58' W 003°18'0 0.0
2017-Apr-22 23:28N 58°58' W 003°18'0 0.0
2017-Apr-22 22:58N 58°58' W 003°18'0 0.0
2017-Apr-22 22:25N 58°58' W 003°18'0 0.0
2017-Apr-22 21:58N 58°58' W 003°18'0 0.0
2017-Apr-22 21:28N 58°58' W 003°18'0 0.0
2017-Apr-22 20:55N 58°58' W 003°18'0 0.0
2017-Apr-22 20:31N 58°58' W 003°18'0 0.0
2017-Apr-22 19:55N 58°58' W 003°18'0 0.0
2017-Apr-22 19:30N 58°58' W 003°18'4 8.0
2017-Apr-22 19:00N 58°56' W 003°24'816.1
2017-Apr-22 18:30N 58°48' W 003°30'816.2
2017-Apr-22 18:00N 58°40' W 003°31'4 7.5
2017-Apr-22 17:30N 58°37' W 003°32'2 4.8
2017-Apr-22 17:00N 58°39' W 003°32'918.0
2017-Apr-22 16:30N 58°48' W 003°29'917.9
2017-Apr-22 16:00N 58°56' W 003°24'3 6.6
2017-Apr-22 15:29N 58°58' W 003°18'0 0.0
2017-Apr-22 14:59N 58°58' W 003°18'0 0.0
2017-Apr-22 14:29N 58°58' W 003°18'0 0.0
2017-Apr-22 13:29N 58°58' W 003°18'0 0.0
2017-Apr-22 12:59N 58°58' W 003°18'0 0.0
2017-Apr-22 12:30N 58°58' W 003°18'510.5
2017-Apr-22 12:00N 58°55' W 003°26'816.0
2017-Apr-22 11:30N 58°47' W 003°29'815.7
2017-Apr-22 11:00N 58°39' W 003°31'3 3.4
2017-Apr-22 10:16N 58°37' W 003°32'0 0.0
2017-Apr-22 09:54N 58°37' W 003°32'0 0.1
2017-Apr-22 09:30N 58°37' W 003°32'714.3
2017-Apr-22 09:00N 58°44' W 003°30'917.8
2017-Apr-22 08:31N 58°52' W 003°28'714.5
2017-Apr-22 08:00N 58°57' W 003°18'0 0.7
2017-Apr-22 07:26N 58°58' W 003°18'0 0.0
2017-Apr-22 06:59N 58°58' W 003°18'0 0.0
2017-Apr-22 06:26N 58°58' W 003°18'0 0.0
2017-Apr-22 05:50N 58°58' W 003°18'0 0.0
2017-Apr-22 05:29N 58°58' W 003°18'0 0.0
2017-Apr-22 04:56N 58°58' W 003°18'0 0.0
2017-Apr-22 04:29N 58°58' W 003°18'0 0.0
2017-Apr-22 03:59N 58°58' W 003°18'0 0.0
2017-Apr-22 03:29N 58°58' W 003°18'0 0.0
2017-Apr-22 02:56N 58°58' W 003°18'0 0.0
2017-Apr-22 02:29N 58°58' W 003°18'0 0.0
2017-Apr-22 01:59N 58°58' W 003°18'0 0.0
2017-Apr-22 01:29N 58°58' W 003°18'0 0.0
2017-Apr-22 00:59N 58°58' W 003°18'0 0.0
2017-Apr-22 00:29N 58°58' W 003°18'0 0.0
2017-Apr-21 23:56N 58°58' W 003°18'0 0.0
2017-Apr-21 23:29N 58°58' W 003°18'0 0.0
2017-Apr-21 22:56N 58°58' W 003°18'0 0.0
2017-Apr-21 22:29N 58°58' W 003°18'0 0.0
2017-Apr-21 21:59N 58°58' W 003°18'0 0.0
2017-Apr-21 21:29N 58°58' W 003°18'0 0.0
2017-Apr-21 20:56N 58°58' W 003°18'0 0.0
2017-Apr-21 20:29N 58°58' W 003°18'0 0.0
2017-Apr-21 20:00N 58°58' W 003°18'4 8.5
2017-Apr-21 19:30N 58°54' W 003°13'815.3
2017-Apr-21 19:00N 58°47' W 003°08'919.1
2017-Apr-21 18:30N 58°42' W 003°24'713.6
2017-Apr-21 17:59N 58°37' W 003°32'0 0.0
2017-Apr-21 17:28N 58°37' W 003°32'4 8.5
2017-Apr-21 17:01N 58°41' W 003°32'918.0
2017-Apr-21 16:30N 58°50' W 003°30'815.8
2017-Apr-21 16:00N 58°57' W 003°23'3 5.8
2017-Apr-21 15:30N 58°58' W 003°18'0 0.0
2017-Apr-21 15:00N 58°58' W 003°18'0 0.0
2017-Apr-21 14:30N 58°58' W 003°18'0 0.0
2017-Apr-21 13:30N 58°58' W 003°18'0 0.0
2017-Apr-21 13:00N 58°58' W 003°18'0 0.0
2017-Apr-21 12:30N 58°58' W 003°18'0 0.0
2017-Apr-21 12:00N 58°58' W 003°18'0 0.0
2017-Apr-21 11:30N 58°58' W 003°18'0 0.0
2017-Apr-21 11:00N 58°58' W 003°18'0 0.0
2017-Apr-21 10:30N 58°58' W 003°18'0 0.0
2017-Apr-21 10:00N 58°58' W 003°18'4 7.6
2017-Apr-21 09:30N 58°55' W 003°13'815.7
2017-Apr-21 09:00N 58°49' W 003°03'815.8
2017-Apr-21 08:30N 58°41' W 003°10'816.8
2017-Apr-21 08:00N 58°40' W 003°26'5 9.7
2017-Apr-21 07:28N 58°37' W 003°32'1 1.8
2017-Apr-21 07:00N 58°37' W 003°32'917.5
2017-Apr-21 06:31N 58°46' W 003°31'917.9
2017-Apr-21 06:00N 58°55' W 003°26'510.8
2017-Apr-21 05:30N 58°58' W 003°18'0 0.0
2017-Apr-21 04:57N 58°58' W 003°18'0 0.0
2017-Apr-21 04:27N 58°58' W 003°18'0 0.0
2017-Apr-21 03:57N 58°58' W 003°18'0 0.0
2017-Apr-21 03:27N 58°58' W 003°18'0 0.0
2017-Apr-21 03:00N 58°58' W 003°18'0 0.0
2017-Apr-21 02:21N 58°58' W 003°18'0 0.0
2017-Apr-21 01:57N 58°58' W 003°18'0 0.0
2017-Apr-21 01:27N 58°58' W 003°18'0 0.0
2017-Apr-21 00:57N 58°58' W 003°18'0 0.0
2017-Apr-21 00:27N 58°58' W 003°18'0 0.0
2017-Apr-20 23:57N 58°58' W 003°18'0 0.0
2017-Apr-20 23:27N 58°58' W 003°18'0 0.0
2017-Apr-20 22:57N 58°58' W 003°18'0 0.0
2017-Apr-20 22:27N 58°58' W 003°18'0 0.0
2017-Apr-20 21:57N 58°58' W 003°18'0 0.0
2017-Apr-20 21:27N 58°58' W 003°18'0 0.0
2017-Apr-20 20:57N 58°58' W 003°18'0 0.0
2017-Apr-20 20:27N 58°58' W 003°18'0 0.0
2017-Apr-20 20:00N 58°58' W 003°18'0 0.0
2017-Apr-20 19:30N 58°58' W 003°18'5 9.8
2017-Apr-20 19:01N 58°55' W 003°26'917.1
2017-Apr-20 18:30N 58°47' W 003°30'817.1
2017-Apr-20 18:00N 58°39' W 003°31'2 3.4
2017-Apr-20 17:26N 58°37' W 003°32'3 7.8
2017-Apr-20 17:00N 58°40' W 003°32'917.6
2017-Apr-20 16:30N 58°49' W 003°30'816.7
2017-Apr-20 16:00N 58°56' W 003°24'3 5.7
2017-Apr-20 15:25N 58°58' W 003°18'0 0.0
2017-Apr-20 14:49N 58°58' W 003°18'0 0.0
2017-Apr-20 13:55N 58°58' W 003°18'0 0.0
2017-Apr-20 13:25N 58°58' W 003°18'0 0.0
2017-Apr-20 12:58N 58°58' W 003°18'0 0.0
2017-Apr-20 12:25N 58°58' W 003°18'0 0.0
2017-Apr-20 12:00N 58°58' W 003°18'0 0.0
2017-Apr-20 11:30N 58°58' W 003°18'0 0.0
2017-Apr-20 11:00N 58°58' W 003°18'0 0.0
2017-Apr-20 10:27N 58°58' W 003°18'0 0.0
2017-Apr-20 09:59N 58°58' W 003°18'0 0.0
2017-Apr-20 09:29N 58°58' W 003°18'1 2.1
2017-Apr-20 09:00N 58°57' W 003°17'815.7
2017-Apr-20 08:30N 58°52' W 003°29'917.7
2017-Apr-20 08:00N 58°43' W 003°31'6 6.5
2017-Apr-20 07:02N 58°37' W 003°32'0 2.2
2017-Apr-20 07:00N 58°37' W 003°32'815.3
2017-Apr-20 06:30N 58°44' W 003°31'917.5
2017-Apr-20 06:01N 58°53' W 003°29'714.5
2017-Apr-20 05:30N 58°57' W 003°18'0 0.9
2017-Apr-20 05:00N 58°58' W 003°18'0 0.0
2017-Apr-20 04:30N 58°58' W 003°18'0 0.0
2017-Apr-20 04:00N 58°58' W 003°18'0 0.0
2017-Apr-20 03:30N 58°58' W 003°18'0 0.0
2017-Apr-20 03:00N 58°58' W 003°18'0 0.0
2017-Apr-20 02:30N 58°58' W 003°18'0 0.0
2017-Apr-20 02:00N 58°58' W 003°18'0 0.0
2017-Apr-20 01:30N 58°58' W 003°18'0 0.0
2017-Apr-20 01:00N 58°58' W 003°18'0 0.0
2017-Apr-20 00:30N 58°58' W 003°18'0 0.0
2017-Apr-20 00:00N 58°58' W 003°18'0 0.0
2017-Apr-19 23:30N 58°58' W 003°18'0 0.0
2017-Apr-19 23:00N 58°58' W 003°18'0 0.0
2017-Apr-19 22:30N 58°58' W 003°18'0 0.0
2017-Apr-19 22:00N 58°58' W 003°18'0 0.0
2017-Apr-19 21:06N 58°58' W 003°18'0 0.0
2017-Apr-19 21:00N 58°58' W 003°18'0 0.0
2017-Apr-19 20:30N 58°58' W 003°18'0 0.0
2017-Apr-19 20:00N 58°58' W 003°18'0 0.0
2017-Apr-19 19:30N 58°58' W 003°18'3 6.4
2017-Apr-19 19:00N 58°56' W 003°23'917.3
2017-Apr-19 18:30N 58°48' W 003°28'917.9
2017-Apr-19 18:00N 58°39' W 003°30'3 5.3
2017-Apr-19 17:30N 58°37' W 003°32'2 3.9
2017-Apr-19 16:59N 58°39' W 003°31'918.4
2017-Apr-19 16:30N 58°47' W 003°29'918.2
2017-Apr-19 16:00N 58°56' W 003°24'4 7.7
2017-Apr-19 15:30N 58°58' W 003°18'0 0.0
2017-Apr-19 15:00N 58°58' W 003°18'0 0.0
2017-Apr-19 14:30N 58°58' W 003°18'0 0.0
2017-Apr-19 13:30N 58°58' W 003°18'0 0.0
2017-Apr-19 13:00N 58°58' W 003°18'0 0.0
2017-Apr-19 12:30N 58°58' W 003°18'0 0.0
2017-Apr-19 12:00N 58°58' W 003°18'0 0.0
2017-Apr-19 11:30N 58°58' W 003°18'0 0.0
2017-Apr-19 11:00N 58°58' W 003°18'0 0.0
2017-Apr-19 10:30N 58°58' W 003°18'0 0.0
2017-Apr-19 10:00N 58°58' W 003°18'0 0.0
2017-Apr-19 09:30N 58°58' W 003°18'1 1.9
2017-Apr-19 09:00N 58°57' W 003°17'815.6
2017-Apr-19 08:31N 58°52' W 003°28'918.4
2017-Apr-19 08:00N 58°43' W 003°30'611.1
2017-Apr-19 07:29N 58°37' W 003°32'0 0.0
2017-Apr-19 06:56N 58°37' W 003°32'613.8
2017-Apr-19 06:30N 58°42' W 003°30'918.2
2017-Apr-19 06:00N 58°52' W 003°28'815.8
2017-Apr-19 05:30N 58°57' W 003°17'1 1.1
2017-Apr-19 04:48N 58°58' W 003°18'0 0.0
2017-Apr-19 04:30N 58°58' W 003°18'0 0.0
2017-Apr-19 04:00N 58°58' W 003°18'0 0.0
2017-Apr-19 03:30N 58°58' W 003°18'0 0.0
2017-Apr-19 03:00N 58°58' W 003°18'0 0.0
2017-Apr-19 02:30N 58°58' W 003°18'0 0.0
2017-Apr-19 02:00N 58°58' W 003°18'0 0.0
2017-Apr-19 01:30N 58°58' W 003°18'0 0.0
2017-Apr-19 01:00N 58°58' W 003°18'0 0.0
2017-Apr-19 00:30N 58°58' W 003°18'0 0.0
2017-Apr-19 00:00N 58°58' W 003°18'0 0.0
2017-Apr-18 23:30N 58°58' W 003°18'0 0.0
2017-Apr-18 23:00N 58°58' W 003°18'0 0.0
2017-Apr-18 22:18N 58°58' W 003°18'0 0.0
2017-Apr-18 22:00N 58°58' W 003°18'0 0.0
2017-Apr-18 21:30N 58°58' W 003°18'0 0.0
2017-Apr-18 21:00N 58°58' W 003°18'0 0.0
2017-Apr-18 20:30N 58°58' W 003°18'0 0.0
2017-Apr-18 20:00N 58°58' W 003°18'  

Dump ship's entire track history